createdAt,value
2017-09-09T00:01:41.336Z,7.57
2017-09-09T00:04:16.098Z,6.93
2017-09-09T00:06:51.196Z,6.30
2017-09-09T00:09:26.141Z,6.70
2017-09-09T00:12:01.492Z,7.53
2017-09-09T00:14:36.560Z,6.60
2017-09-09T00:17:11.152Z,6.27
2017-09-09T00:19:45.844Z,6.03
2017-09-09T00:22:20.669Z,6.70
2017-09-09T00:24:55.473Z,5.80
2017-09-09T00:27:30.199Z,5.63
2017-09-09T00:30:04.584Z,5.50
2017-09-09T00:32:39.507Z,5.33
2017-09-09T00:35:14.283Z,5.50
2017-09-09T00:37:49.036Z,5.00
2017-09-09T00:40:23.540Z,5.03
2017-09-09T00:42:57.928Z,5.00
2017-09-09T00:45:32.923Z,5.60
2017-09-09T00:48:07.620Z,5.13
2017-09-09T00:50:41.988Z,5.07
2017-09-09T00:53:16.468Z,5.13
2017-09-09T00:55:52.077Z,4.70
2017-09-09T00:58:26.597Z,3.63
2017-09-09T01:01:01.053Z,3.33
2017-09-09T01:03:36.160Z,2.20
2017-09-09T01:06:11.043Z,2.67
2017-09-09T01:08:45.675Z,2.97
2017-09-09T01:11:20.758Z,3.03
2017-09-09T01:13:55.518Z,2.90
2017-09-09T01:16:30.410Z,3.13
2017-09-09T01:19:05.667Z,2.87
2017-09-09T01:21:40.329Z,2.60
2017-09-09T01:24:14.876Z,2.70
2017-09-09T01:26:50.175Z,2.50
2017-09-09T01:29:24.527Z,2.57
2017-09-09T01:31:59.609Z,2.90
2017-09-09T01:34:34.912Z,3.10
2017-09-09T01:37:09.893Z,3.60
2017-09-09T01:39:44.472Z,3.27
2017-09-09T01:42:19.125Z,3.43
2017-09-09T01:44:53.381Z,4.13
2017-09-09T01:47:28.332Z,3.47
2017-09-09T01:50:03.045Z,3.03
2017-09-09T01:52:37.985Z,3.60
2017-09-09T01:55:12.745Z,3.10
2017-09-09T01:57:47.596Z,4.30
2017-09-09T02:00:22.326Z,4.00
2017-09-09T02:02:57.023Z,4.03
2017-09-09T02:05:31.751Z,3.20
2017-09-09T02:08:06.517Z,4.27
2017-09-09T02:10:41.240Z,4.13
2017-09-09T02:13:15.845Z,3.20
2017-09-09T02:15:50.878Z,3.17
2017-09-09T02:18:25.891Z,3.80
2017-09-09T02:21:00.902Z,2.60
2017-09-09T02:23:35.404Z,3.03
2017-09-09T02:26:10.140Z,2.80
2017-09-09T02:28:44.865Z,2.53
2017-09-09T02:31:20.557Z,3.33
2017-09-09T02:33:55.187Z,2.60
2017-09-09T02:36:29.937Z,2.63
2017-09-09T02:39:04.083Z,2.23
2017-09-09T02:41:39.152Z,2.83
2017-09-09T02:44:13.886Z,2.33
2017-09-09T02:46:48.789Z,2.03
2017-09-09T02:49:24.100Z,2.70
2017-09-09T02:51:59.714Z,2.80
2017-09-09T02:54:34.435Z,3.03
2017-09-09T02:57:09.195Z,2.27
2017-09-09T02:59:43.952Z,2.50
2017-09-09T03:02:18.652Z,2.97
2017-09-09T03:04:54.480Z,2.40
2017-09-09T03:07:29.522Z,2.90
2017-09-09T03:10:03.984Z,2.77
2017-09-09T03:12:38.752Z,2.73
2017-09-09T03:15:13.377Z,2.43
2017-09-09T03:17:48.173Z,2.50
2017-09-09T03:20:22.876Z,2.60
2017-09-09T03:22:57.760Z,3.30
2017-09-09T03:25:32.532Z,2.40
2017-09-09T03:28:07.469Z,2.30
2017-09-09T03:30:42.321Z,2.73
2017-09-09T03:33:17.271Z,2.30
2017-09-09T03:35:52.071Z,2.50
2017-09-09T03:38:27.921Z,2.47
2017-09-09T03:41:02.536Z,3.40
2017-09-09T03:43:37.179Z,2.60
2017-09-09T03:46:11.984Z,2.40
2017-09-09T03:48:46.587Z,2.70
2017-09-09T03:51:21.328Z,2.87
2017-09-09T03:53:56.200Z,3.00
2017-09-09T03:56:31.032Z,2.53
2017-09-09T03:59:06.901Z,2.73
2017-09-09T04:01:41.493Z,2.90
2017-09-09T04:04:16.208Z,3.07
2017-09-09T04:06:50.936Z,2.67
2017-09-09T04:09:25.509Z,2.90
2017-09-09T04:12:00.504Z,3.10
2017-09-09T04:14:35.252Z,2.70
2017-09-09T04:17:10.084Z,3.47
2017-09-09T04:19:45.779Z,3.60
2017-09-09T04:22:20.391Z,3.77
2017-09-09T04:24:55.097Z,3.67
2017-09-09T04:27:29.918Z,4.40
2017-09-09T04:30:04.583Z,4.40
2017-09-09T04:32:39.254Z,3.93
2017-09-09T04:35:14.023Z,5.10
2017-09-09T04:37:49.233Z,6.10
2017-09-09T04:40:24.885Z,6.50
2017-09-09T04:42:59.845Z,6.10
2017-09-09T04:45:35.755Z,6.37
2017-09-09T04:48:10.395Z,7.03
2017-09-09T04:50:45.196Z,6.87
2017-09-09T04:53:19.924Z,6.80
2017-09-09T04:55:54.560Z,7.83
2017-09-09T04:58:29.280Z,7.50
2017-09-09T05:01:04.889Z,7.70
2017-09-09T05:03:39.596Z,7.90
2017-09-09T05:06:14.324Z,8.23
2017-09-09T05:08:49.147Z,9.53
2017-09-09T05:11:24.737Z,9.40
2017-09-09T05:13:59.796Z,9.90
2017-09-09T05:16:34.527Z,10.90
2017-09-09T05:19:08.929Z,10.50
2017-09-09T05:21:43.557Z,10.60
2017-09-09T05:24:18.281Z,11.13
2017-09-09T05:26:53.031Z,11.77
2017-09-09T05:29:27.635Z,11.03
2017-09-09T05:32:02.661Z,11.37
2017-09-09T05:34:37.325Z,10.70
2017-09-09T05:37:12.129Z,11.40
2017-09-09T05:39:46.929Z,11.53
2017-09-09T05:42:22.004Z,12.13
2017-09-09T05:44:57.305Z,11.47
2017-09-09T05:47:32.512Z,11.80
2017-09-09T05:50:06.924Z,11.83
2017-09-09T05:52:41.827Z,12.17
2017-09-09T05:55:16.848Z,13.53
2017-09-09T05:57:52.005Z,12.50
2017-09-09T06:00:27.051Z,12.93
2017-09-09T06:03:02.006Z,11.33
2017-09-09T06:05:36.728Z,12.00
2017-09-09T06:08:11.767Z,11.40
2017-09-09T06:10:46.487Z,10.30
2017-09-09T06:13:21.251Z,11.87
2017-09-09T06:15:56.167Z,11.83
2017-09-09T06:18:30.670Z,11.60
2017-09-09T06:21:05.756Z,11.87
2017-09-09T06:23:40.540Z,11.10
2017-09-09T06:26:15.229Z,12.63
2017-09-09T06:28:50.064Z,12.00
2017-09-09T06:31:24.700Z,12.23
2017-09-09T06:33:59.656Z,10.63
2017-09-09T06:36:34.400Z,11.43
2017-09-09T06:39:09.328Z,10.73
2017-09-09T06:41:44.082Z,11.50
2017-09-09T06:44:18.903Z,10.60
2017-09-09T06:46:53.806Z,9.47
2017-09-09T06:49:28.736Z,11.17
2017-09-09T06:52:03.541Z,10.23
2017-09-09T06:54:38.273Z,9.40
2017-09-09T06:57:13.028Z,9.17
2017-09-09T06:59:48.132Z,10.70
2017-09-09T07:02:22.933Z,10.40
2017-09-09T07:04:57.737Z,8.60
2017-09-09T07:07:32.670Z,9.50
2017-09-09T07:10:07.702Z,9.30
2017-09-09T07:12:42.595Z,8.70
2017-09-09T07:15:17.437Z,7.57
2017-09-09T07:17:51.951Z,6.97
2017-09-09T07:20:26.600Z,7.43
2017-09-09T07:23:01.308Z,6.30
2017-09-09T07:25:37.181Z,6.30
2017-09-09T07:28:11.705Z,6.37
2017-09-09T07:30:46.744Z,5.90
2017-09-09T07:33:21.528Z,5.10
2017-09-09T07:35:57.116Z,5.00
2017-09-09T07:38:31.798Z,4.80
2017-09-09T07:41:06.457Z,5.90
2017-09-09T07:43:41.199Z,6.20
2017-09-09T07:46:15.948Z,5.90
2017-09-09T07:48:50.741Z,5.77
2017-09-09T07:51:25.465Z,5.70
2017-09-09T07:54:00.196Z,6.37
2017-09-09T07:56:34.822Z,6.70
2017-09-09T07:59:09.777Z,5.80
2017-09-09T08:01:44.280Z,5.40
2017-09-09T08:04:19.326Z,6.50
2017-09-09T08:06:54.884Z,6.27
2017-09-09T08:09:29.865Z,5.10
2017-09-09T08:12:04.735Z,5.50
2017-09-09T08:14:39.633Z,5.73
2017-09-09T08:17:14.395Z,6.30
2017-09-09T08:19:49.082Z,4.93
2017-09-09T08:22:23.805Z,6.10
2017-09-09T08:24:58.297Z,5.30
2017-09-09T08:27:33.798Z,5.27
2017-09-09T08:30:08.826Z,4.80
2017-09-09T08:32:43.350Z,4.63
2017-09-09T08:35:18.311Z,5.20
2017-09-09T08:37:52.952Z,5.50
2017-09-09T08:40:27.600Z,5.70
2017-09-09T08:43:04.635Z,5.20
2017-09-09T08:45:39.041Z,6.07
2017-09-09T08:51:23.658Z,5.80
2017-09-09T08:53:58.264Z,5.10
2017-09-09T08:56:33.057Z,5.90
2017-09-09T08:59:08.101Z,4.60
2017-09-09T09:01:43.296Z,4.60
2017-09-09T09:04:17.825Z,4.77
2017-09-09T09:06:52.733Z,5.00
2017-09-09T09:09:27.636Z,5.03
2017-09-09T09:12:02.464Z,5.10
2017-09-09T09:14:37.826Z,5.27
2017-09-09T09:17:12.620Z,3.83
2017-09-09T09:19:47.477Z,4.43
2017-09-09T09:22:22.090Z,4.80
2017-09-09T09:24:57.026Z,4.57
2017-09-09T09:27:31.436Z,4.60
2017-09-09T09:30:06.667Z,4.43
2017-09-09T09:32:41.808Z,4.30
2017-09-09T09:35:16.334Z,4.87
2017-09-09T09:37:51.020Z,4.30
2017-09-09T09:40:25.775Z,5.30
2017-09-09T09:43:00.640Z,5.47
2017-09-09T09:45:35.365Z,5.00
2017-09-09T09:48:10.119Z,5.40
2017-09-09T09:50:45.305Z,6.00
2017-09-09T09:53:20.246Z,6.30
2017-09-09T09:55:55.176Z,5.30
2017-09-09T09:58:29.981Z,5.77
2017-09-09T10:01:04.995Z,3.63
2017-09-09T10:03:39.880Z,6.03
2017-09-09T10:06:14.614Z,6.47
2017-09-09T10:08:49.364Z,6.40
2017-09-09T10:11:24.260Z,6.57
2017-09-09T10:13:59.096Z,7.60
2017-09-09T10:16:34.021Z,7.07
2017-09-09T10:19:08.869Z,7.37
2017-09-09T10:21:43.492Z,6.00
2017-09-09T10:24:19.037Z,7.40
2017-09-09T10:26:53.883Z,7.57
2017-09-09T10:29:28.612Z,8.53
2017-09-09T10:32:03.374Z,6.30
2017-09-09T10:34:38.183Z,6.87
2017-09-09T10:37:13.100Z,7.97
2017-09-09T10:39:47.935Z,8.50
2017-09-09T10:42:22.768Z,8.03
2017-09-09T10:44:57.677Z,8.40
2017-09-09T10:47:32.445Z,8.30
2017-09-09T10:50:07.197Z,7.50
2017-09-09T10:52:43.413Z,7.90
2017-09-09T10:55:18.033Z,8.53
2017-09-09T10:57:52.756Z,9.50
2017-09-09T11:00:27.563Z,10.17
2017-09-09T11:03:02.270Z,9.30
2017-09-09T11:05:37.381Z,9.47
2017-09-09T11:08:12.598Z,8.20
2017-09-09T11:10:47.248Z,7.63
2017-09-09T11:13:22.083Z,8.17
2017-09-09T11:15:56.977Z,6.70
2017-09-09T11:18:31.519Z,7.97
2017-09-09T11:21:06.330Z,6.80
2017-09-09T11:23:41.042Z,8.17
2017-09-09T11:26:15.753Z,6.80
2017-09-09T11:28:50.817Z,7.17
2017-09-09T11:31:25.669Z,7.90
2017-09-09T11:34:00.341Z,6.77
2017-09-09T11:36:34.864Z,5.20
2017-09-09T11:39:09.825Z,4.97
2017-09-09T11:41:44.783Z,4.87
2017-09-09T11:44:19.659Z,5.40
2017-09-09T11:46:54.449Z,4.63
2017-09-09T11:49:29.415Z,4.30
2017-09-09T11:52:04.319Z,4.40
2017-09-09T11:54:39.056Z,4.27
2017-09-09T11:57:13.438Z,3.23
2017-09-09T11:59:48.504Z,3.20
2017-09-09T12:02:23.401Z,3.60
2017-09-09T12:04:58.216Z,3.33
2017-09-09T12:07:33.035Z,3.40
2017-09-09T12:10:08.248Z,3.07
2017-09-09T12:12:42.797Z,2.40
2017-09-09T12:15:18.161Z,2.40
2017-09-09T12:17:53.093Z,2.20
2017-09-09T12:20:27.821Z,1.93
2017-09-09T12:23:02.582Z,1.40
2017-09-09T12:25:37.364Z,1.50
2017-09-09T12:28:12.385Z,1.30
2017-09-09T12:30:47.071Z,1.30
2017-09-09T12:33:21.856Z,1.03
2017-09-09T12:35:56.685Z,1.00
2017-09-09T12:38:31.641Z,1.10
2017-09-09T12:41:06.644Z,1.00
2017-09-09T12:43:41.570Z,1.37
2017-09-09T12:46:16.357Z,0.80
2017-09-09T12:48:51.277Z,0.80
2017-09-09T12:51:26.009Z,1.07
2017-09-09T12:54:00.704Z,1.10
2017-09-09T12:56:35.688Z,1.10
2017-09-09T12:59:10.639Z,1.47
2017-09-09T13:01:45.521Z,1.30
2017-09-09T13:04:20.276Z,1.70
2017-09-09T13:06:55.019Z,2.20
2017-09-09T13:09:29.729Z,3.33
2017-09-09T13:12:04.485Z,1.83
2017-09-09T13:14:39.212Z,2.00
2017-09-09T13:17:14.255Z,1.60
2017-09-09T13:19:49.286Z,1.67
2017-09-09T13:22:23.949Z,1.30
2017-09-09T13:24:58.752Z,1.40
2017-09-09T13:27:33.308Z,1.60
2017-09-09T13:30:08.449Z,1.43
2017-09-09T13:32:43.010Z,1.60
2017-09-09T13:35:17.771Z,1.77
2017-09-09T13:37:52.565Z,1.50
2017-09-09T13:40:27.202Z,1.60
2017-09-09T13:43:02.117Z,1.50
2017-09-09T13:45:36.904Z,1.63
2017-09-09T13:48:11.795Z,1.73
2017-09-09T13:50:46.532Z,1.73
2017-09-09T13:53:21.655Z,1.30
2017-09-09T13:55:56.440Z,1.73
2017-09-09T13:58:31.268Z,1.53
2017-09-09T14:01:06.020Z,1.10
2017-09-09T14:03:40.571Z,1.30
2017-09-09T14:06:15.864Z,1.13
2017-09-09T14:08:50.984Z,1.40
2017-09-09T14:11:25.841Z,1.20
2017-09-09T14:14:00.964Z,1.20
2017-09-09T14:16:35.785Z,1.10
2017-09-09T14:19:10.692Z,1.30
2017-09-09T14:21:45.776Z,1.23
2017-09-09T14:24:20.296Z,1.40
2017-09-09T14:26:55.143Z,1.27
2017-09-09T14:29:30.312Z,1.27
2017-09-09T14:32:05.260Z,1.10
2017-09-09T14:34:40.084Z,1.20
2017-09-09T14:37:15.237Z,1.60
2017-09-09T14:39:49.672Z,1.40
2017-09-09T14:42:24.673Z,1.13
2017-09-09T14:44:59.583Z,1.07
2017-09-09T14:47:34.273Z,1.20
2017-09-09T14:50:08.903Z,1.40
2017-09-09T14:52:43.630Z,1.10
2017-09-09T14:55:20.521Z,1.20
2017-09-09T14:57:55.120Z,1.30
2017-09-09T15:00:29.993Z,1.40
2017-09-09T15:03:04.588Z,1.40
2017-09-09T15:05:39.219Z,1.30
2017-09-09T15:08:14.058Z,1.07
2017-09-09T15:10:49.083Z,1.27
2017-09-09T15:13:23.686Z,1.43
2017-09-09T15:15:58.808Z,1.87
2017-09-09T15:18:33.942Z,1.37
2017-09-09T15:21:08.724Z,1.37
2017-09-09T15:23:43.559Z,1.57
2017-09-09T15:26:18.744Z,1.40
2017-09-09T15:28:53.444Z,1.90
2017-09-09T15:31:28.268Z,1.57
2017-09-09T15:34:03.272Z,1.80
2017-09-09T15:36:38.247Z,1.90
2017-09-09T15:39:12.968Z,3.00
2017-09-09T15:41:47.524Z,2.30
2017-09-09T15:44:22.311Z,3.20
2017-09-09T15:46:56.828Z,3.10
2017-09-09T15:49:31.652Z,2.90
2017-09-09T15:52:06.296Z,2.83
2017-09-09T15:54:41.201Z,2.70
2017-09-09T15:57:16.148Z,2.73
2017-09-09T15:59:51.131Z,3.37
2017-09-09T16:02:25.952Z,2.83
2017-09-09T16:05:00.639Z,2.17
2017-09-09T16:07:35.644Z,2.17
2017-09-09T16:10:10.671Z,1.90
2017-09-09T16:12:46.252Z,1.70
2017-09-09T16:15:21.130Z,1.60
2017-09-09T16:17:55.960Z,1.73
2017-09-09T16:20:30.793Z,1.33
2017-09-09T16:23:05.517Z,1.30
2017-09-09T16:25:40.344Z,1.20
2017-09-09T16:28:15.173Z,1.60
2017-09-09T16:30:49.987Z,1.87
2017-09-09T16:33:25.552Z,1.57
2017-09-09T16:36:00.295Z,1.60
2017-09-09T16:38:35.304Z,1.90
2017-09-09T16:41:10.164Z,1.60
2017-09-09T16:43:45.264Z,1.73
2017-09-09T16:46:20.173Z,1.80
2017-09-09T16:48:55.072Z,1.97
2017-09-09T16:51:30.300Z,2.20
2017-09-09T16:54:05.440Z,2.07
2017-09-09T16:56:40.385Z,1.70
2017-09-09T16:59:14.864Z,2.00
2017-09-09T17:01:50.078Z,2.50
2017-09-09T17:04:24.876Z,2.60
2017-09-09T17:06:59.882Z,2.60
2017-09-09T17:09:34.633Z,2.60
2017-09-09T17:12:09.905Z,2.70
2017-09-09T17:14:44.554Z,2.93
2017-09-09T17:17:19.205Z,2.47
2017-09-09T17:19:54.372Z,2.97
2017-09-09T17:22:29.277Z,2.70
2017-09-09T17:25:04.183Z,3.13
2017-09-09T17:27:38.899Z,3.53
2017-09-09T17:30:14.058Z,3.60
2017-09-09T17:32:49.028Z,3.00
2017-09-09T17:35:23.929Z,3.23
2017-09-09T17:37:58.448Z,3.23
2017-09-09T17:40:33.769Z,3.60
2017-09-09T17:43:08.576Z,3.70
2017-09-09T17:45:43.473Z,3.43
2017-09-09T17:48:18.581Z,3.50
2017-09-09T17:50:53.541Z,3.73
2017-09-09T17:53:28.232Z,3.20
2017-09-09T17:56:03.116Z,3.70
2017-09-09T17:58:38.021Z,4.17
2017-09-09T18:01:12.943Z,3.77
2017-09-09T18:03:47.669Z,4.20
2017-09-09T18:06:22.391Z,4.60
2017-09-09T18:08:57.031Z,5.17
2017-09-09T18:11:31.752Z,4.77
2017-09-09T18:14:06.808Z,4.70
2017-09-09T18:16:41.451Z,5.67
2017-09-09T18:19:16.648Z,4.70
2017-09-09T18:21:51.487Z,5.20
2017-09-09T18:24:26.233Z,5.60
2017-09-09T18:27:01.575Z,5.90
2017-09-09T18:29:36.567Z,5.00
2017-09-09T18:32:11.439Z,5.50
2017-09-09T18:34:46.428Z,5.17
2017-09-09T18:37:21.140Z,5.50
2017-09-09T18:39:55.838Z,6.40
2017-09-09T18:42:30.623Z,6.10
2017-09-09T18:45:05.445Z,5.47
2017-09-09T18:47:40.358Z,5.60
2017-09-09T18:50:15.264Z,5.40
2017-09-09T18:52:50.096Z,6.30
2017-09-09T18:55:24.844Z,6.27
2017-09-09T18:57:59.676Z,6.33
2017-09-09T19:00:34.367Z,5.73
2017-09-09T19:03:09.037Z,6.10
2017-09-09T19:05:44.113Z,5.90
2017-09-09T19:08:19.108Z,6.40
2017-09-09T19:10:53.826Z,6.03
2017-09-09T19:13:29.432Z,6.10
2017-09-09T19:16:04.305Z,6.00
2017-09-09T19:18:39.349Z,7.00
2017-09-09T19:21:14.557Z,6.37
2017-09-09T19:23:48.897Z,6.63
2017-09-09T19:26:23.743Z,7.30
2017-09-09T19:28:58.632Z,7.63
2017-09-09T19:31:33.664Z,7.30
2017-09-09T19:34:08.430Z,6.90
2017-09-09T19:36:43.255Z,7.70
2017-09-09T19:39:18.200Z,7.67
2017-09-09T19:41:53.032Z,6.93
2017-09-09T19:44:27.844Z,6.77
2017-09-09T19:47:02.668Z,6.93
2017-09-09T19:49:37.368Z,7.00
2017-09-09T19:52:12.113Z,7.63
2017-09-09T19:54:46.977Z,7.80
2017-09-09T19:57:21.805Z,7.87
2017-09-09T19:59:56.628Z,8.77
2017-09-09T20:02:31.438Z,8.37
2017-09-09T20:05:06.288Z,9.20
2017-09-09T20:07:41.240Z,8.60
2017-09-09T20:10:16.155Z,8.93
2017-09-09T20:12:50.989Z,10.40
2017-09-09T20:15:25.588Z,9.00
2017-09-09T20:18:00.475Z,9.43
2017-09-09T20:20:35.280Z,9.60
2017-09-09T20:23:09.804Z,9.27
2017-09-09T20:25:44.751Z,9.50
2017-09-09T20:28:19.568Z,9.73
2017-09-09T20:30:54.709Z,10.53
2017-09-09T20:33:29.523Z,9.57
2017-09-09T20:36:04.461Z,10.40
2017-09-09T20:38:39.365Z,10.80
2017-09-09T20:41:14.409Z,10.73
2017-09-09T20:43:49.592Z,10.47
2017-09-09T20:46:24.540Z,10.40
2017-09-09T20:48:59.421Z,8.40
2017-09-09T20:51:34.389Z,11.00
2017-09-09T20:54:08.949Z,10.80
2017-09-09T20:56:43.960Z,8.47
2017-09-09T20:59:18.859Z,8.80
2017-09-09T21:01:53.884Z,8.03
2017-09-09T21:04:28.305Z,8.27
2017-09-09T21:07:03.275Z,18.13
2017-09-09T21:09:38.395Z,11.27
2017-09-09T21:12:13.364Z,10.40
2017-09-09T21:14:48.507Z,10.83
2017-09-09T21:17:23.240Z,10.70
2017-09-09T21:19:58.188Z,9.50
2017-09-09T21:22:33.003Z,11.37
2017-09-09T21:25:07.905Z,10.13
2017-09-09T21:27:42.850Z,11.70
2017-09-09T21:30:17.536Z,9.70
2017-09-09T21:32:52.375Z,11.63
2017-09-09T21:35:27.123Z,13.13
2017-09-09T21:38:01.943Z,12.43
2017-09-09T21:40:36.895Z,12.40
2017-09-09T21:43:11.920Z,10.97
2017-09-09T21:45:46.998Z,12.83
2017-09-09T21:48:21.743Z,11.43
2017-09-09T21:50:56.731Z,11.67
2017-09-09T21:53:31.857Z,11.20
2017-09-09T21:56:06.812Z,10.60
2017-09-09T21:58:41.892Z,10.80
2017-09-09T22:01:17.006Z,10.30
2017-09-09T22:03:52.632Z,10.57
2017-09-09T22:06:27.115Z,9.70
2017-09-09T22:09:02.077Z,9.07
2017-09-09T22:11:36.734Z,8.73
2017-09-09T22:14:11.584Z,10.53
2017-09-09T22:16:46.335Z,10.10
2017-09-09T22:19:21.437Z,9.00
2017-09-09T22:21:56.219Z,9.47
2017-09-09T22:24:31.363Z,8.43
2017-09-09T22:27:06.284Z,10.50
2017-09-09T22:29:41.204Z,12.27
2017-09-09T22:32:16.067Z,8.40
2017-09-09T22:34:50.881Z,8.27
2017-09-09T22:37:27.160Z,9.83
2017-09-09T22:40:01.862Z,9.50
2017-09-09T22:42:36.706Z,9.73
2017-09-09T22:45:11.555Z,11.47
2017-09-09T22:47:46.785Z,12.60
2017-09-09T22:50:21.814Z,11.57
2017-09-09T22:52:56.983Z,12.07
2017-09-09T22:55:31.964Z,12.13
2017-09-09T22:58:07.076Z,13.60
2017-09-09T23:00:41.973Z,11.77
2017-09-09T23:03:16.429Z,14.30
2017-09-09T23:05:51.418Z,14.80
2017-09-09T23:08:26.441Z,13.50
2017-09-09T23:11:01.455Z,14.03
2017-09-09T23:13:36.732Z,15.13
2017-09-09T23:16:11.563Z,14.63
2017-09-09T23:18:46.524Z,15.47
2017-09-09T23:21:21.493Z,14.63
2017-09-09T23:23:56.508Z,14.77
2017-09-09T23:26:31.327Z,14.90
2017-09-09T23:29:06.336Z,15.00
2017-09-09T23:31:41.171Z,15.00
2017-09-09T23:34:16.100Z,14.97
2017-09-09T23:36:50.733Z,15.50
2017-09-09T23:39:25.744Z,15.73
2017-09-09T23:42:00.552Z,16.50
2017-09-09T23:44:35.884Z,17.70
2017-09-09T23:47:10.352Z,15.87
2017-09-09T23:49:45.487Z,16.20
2017-09-09T23:52:20.444Z,14.90
2017-09-09T23:54:55.239Z,15.57
2017-09-09T23:57:30.548Z,16.03
